sensor_id;sensor_type;location;lat;lon;timestamp;pressure;altitude;pressure_sealevel;temperature;humidity
10881;BME280;5493;48.884;8.338;2023-01-28T00:00:11;100910.13;;;3.35;100.00
10881;BME280;5493;48.884;8.338;2023-01-28T00:02:39;100913.19;;;3.48;100.00
10881;BME280;5493;48.884;8.338;2023-01-28T00:05:06;100912.66;;;3.45;100.00
10881;BME280;5493;48.884;8.338;2023-01-28T00:07:33;100911.88;;;3.27;100.00
10881;BME280;5493;48.884;8.338;2023-01-28T00:09:59;100898.91;;;3.58;100.00
10881;BME280;5493;48.884;8.338;2023-01-28T00:12:26;100913.63;;;3.36;100.00
10881;BME280;5493;48.884;8.338;2023-01-28T00:14:53;100919.69;;;3.20;100.00
10881;BME280;5493;48.884;8.338;2023-01-28T00:17:20;100925.53;;;3.24;100.00
10881;BME280;5493;48.884;8.338;2023-01-28T00:19:48;100917.78;;;3.38;100.00
10881;BME280;5493;48.884;8.338;2023-01-28T00:22:14;100918.25;;;3.34;100.00
10881;BME280;5493;48.884;8.338;2023-01-28T00:24:41;100932.63;;;3.41;100.00
10881;BME280;5493;48.884;8.338;2023-01-28T00:27:07;100929.09;;;3.32;100.00
10881;BME280;5493;48.884;8.338;2023-01-28T00:29:34;100927.75;;;3.36;100.00
10881;BME280;5493;48.884;8.338;2023-01-28T00:32:01;100926.44;;;3.32;100.00
10881;BME280;5493;48.884;8.338;2023-01-28T00:34:27;100925.41;;;3.33;100.00
10881;BME280;5493;48.884;8.338;2023-01-28T00:36:55;100922.88;;;3.50;100.00
10881;BME280;5493;48.884;8.338;2023-01-28T00:39:23;100926.19;;;3.52;100.00
10881;BME280;5493;48.884;8.338;2023-01-28T00:41:50;100924.53;;;3.51;100.00
10881;BME280;5493;48.884;8.338;2023-01-28T00:44:17;100924.88;;;3.56;100.00
10881;BME280;5493;48.884;8.338;2023-01-28T00:46:44;100923.94;;;3.65;100.00
10881;BME280;5493;48.884;8.338;2023-01-28T00:49:10;100930.91;;;3.58;100.00
10881;BME280;5493;48.884;8.338;2023-01-28T00:51:37;100930.13;;;3.39;100.00
10881;BME280;5493;48.884;8.338;2023-01-28T00:54:05;100930.53;;;3.53;100.00
10881;BME280;5493;48.884;8.338;2023-01-28T00:56:31;100924.75;;;3.57;100.00
10881;BME280;5493;48.884;8.338;2023-01-28T00:58:58;100927.47;;;3.39;100.00
10881;BME280;5493;48.884;8.338;2023-01-28T01:01:26;100928.50;;;3.46;100.00
10881;BME280;5493;48.884;8.338;2023-01-28T01:03:53;100928.13;;;3.41;100.00
10881;BME280;5493;48.884;8.338;2023-01-28T01:06:28;100932.81;;;3.47;100.00
10881;BME280;5493;48.884;8.338;2023-01-28T01:08:54;100929.19;;;3.48;100.00
10881;BME280;5493;48.884;8.338;2023-01-28T01:11:22;100928.19;;;3.50;100.00
10881;BME280;5493;48.884;8.338;2023-01-28T01:13:50;100922.22;;;3.56;100.00
10881;BME280;5493;48.884;8.338;2023-01-28T01:16:19;100919.97;;;3.69;100.00
10881;BME280;5493;48.884;8.338;2023-01-28T01:18:46;100918.16;;;3.43;100.00
10881;BME280;5493;48.884;8.338;2023-01-28T01:21:15;100922.03;;;3.49;100.00
10881;BME280;5493;48.884;8.338;2023-01-28T01:23:43;100916.59;;;3.67;100.00
10881;BME280;5493;48.884;8.338;2023-01-28T01:26:10;100923.72;;;3.58;100.00
10881;BME280;5493;48.884;8.338;2023-01-28T01:28:38;100931.91;;;3.57;100.00
10881;BME280;5493;48.884;8.338;2023-01-28T01:31:06;100928.44;;;3.64;100.00
10881;BME280;5493;48.884;8.338;2023-01-28T01:33:33;100930.31;;;3.80;100.00
10881;BME280;5493;48.884;8.338;2023-01-28T01:36:00;100925.78;;;3.64;100.00
10881;BME280;5493;48.884;8.338;2023-01-28T01:38:27;100928.25;;;3.66;100.00
10881;BME280;5493;48.884;8.338;2023-01-28T01:40:56;100929.28;;;3.65;100.00
10881;BME280;5493;48.884;8.338;2023-01-28T01:43:24;100931.69;;;3.84;100.00
10881;BME280;5493;48.884;8.338;2023-01-28T01:45:54;100923.97;;;3.73;100.00
10881;BME280;5493;48.884;8.338;2023-01-28T01:48:24;100923.53;;;3.85;100.00
10881;BME280;5493;48.884;8.338;2023-01-28T01:50:57;100922.13;;;3.65;100.00
10881;BME280;5493;48.884;8.338;2023-01-28T01:53:25;100923.97;;;3.73;100.00
10881;BME280;5493;48.884;8.338;2023-01-28T01:55:56;100925.91;;;3.63;100.00
10881;BME280;5493;48.884;8.338;2023-01-28T01:58:29;100924.47;;;3.68;100.00
10881;BME280;5493;48.884;8.338;2023-01-28T02:00:58;100919.88;;;3.86;100.00
10881;BME280;5493;48.884;8.338;2023-01-28T02:03:27;100918.19;;;3.85;100.00
10881;BME280;5493;48.884;8.338;2023-01-28T02:05:56;100919.69;;;3.88;100.00
10881;BME280;5493;48.884;8.338;2023-01-28T02:08:23;100911.69;;;3.88;100.00
10881;BME280;5493;48.884;8.338;2023-01-28T02:10:54;100913.75;;;4.02;100.00
10881;BME280;5493;48.884;8.338;2023-01-28T02:13:24;100920.06;;;3.93;100.00
10881;BME280;5493;48.884;8.338;2023-01-28T02:15:52;100911.59;;;3.97;100.00
10881;BME280;5493;48.884;8.338;2023-01-28T02:18:21;100914.69;;;3.85;100.00
10881;BME280;5493;48.884;8.338;2023-01-28T02:21:05;100920.41;;;3.98;100.00
10881;BME280;5493;48.884;8.338;2023-01-28T02:23:49;100922.06;;;3.99;100.00
10881;BME280;5493;48.884;8.338;2023-01-28T02:26:43;100922.88;;;3.91;100.00
10881;BME280;5493;48.884;8.338;2023-01-28T02:29:21;100921.09;;;4.00;100.00
10881;BME280;5493;48.884;8.338;2023-01-28T02:32:00;100922.25;;;3.97;100.00
10881;BME280;5493;48.884;8.338;2023-01-28T02:34:34;100931.91;;;3.90;100.00
10881;BME280;5493;48.884;8.338;2023-01-28T02:37:08;100934.00;;;3.79;100.00
10881;BME280;5493;48.884;8.338;2023-01-28T02:39:39;100933.44;;;3.67;100.00
10881;BME280;5493;48.884;8.338;2023-01-28T02:42:10;100929.28;;;3.73;100.00
10881;BME280;5493;48.884;8.338;2023-01-28T02:44:40;100932.72;;;3.91;100.00
10881;BME280;5493;48.884;8.338;2023-01-28T02:47:09;100931.41;;;3.95;100.00
10881;BME280;5493;48.884;8.338;2023-01-28T02:49:54;100940.84;;;3.81;100.00
10881;BME280;5493;48.884;8.338;2023-01-28T02:52:31;100937.72;;;3.86;100.00
10881;BME280;5493;48.884;8.338;2023-01-28T02:55:27;100938.50;;;3.78;100.00
10881;BME280;5493;48.884;8.338;2023-01-28T02:58:01;100940.19;;;3.87;100.00
10881;BME280;5493;48.884;8.338;2023-01-28T03:00:33;100939.03;;;3.82;100.00
10881;BME280;5493;48.884;8.338;2023-01-28T03:03:14;100945.19;;;3.82;100.00
10881;BME280;5493;48.884;8.338;2023-01-28T03:05:45;100941.22;;;3.86;100.00
10881;BME280;5493;48.884;8.338;2023-01-28T03:08:29;100944.41;;;3.98;100.00
10881;BME280;5493;48.884;8.338;2023-01-28T03:11:14;100941.03;;;3.88;100.00
10881;BME280;5493;48.884;8.338;2023-01-28T03:13:58;100942.53;;;3.82;100.00
10881;BME280;5493;48.884;8.338;2023-01-28T03:16:44;100947.53;;;3.85;100.00
10881;BME280;5493;48.884;8.338;2023-01-28T03:19:28;100939.66;;;3.76;100.00
10881;BME280;5493;48.884;8.338;2023-01-28T03:22:13;100937.00;;;3.76;100.00
10881;BME280;5493;48.884;8.338;2023-01-28T03:24:58;100937.81;;;3.76;100.00
10881;BME280;5493;48.884;8.338;2023-01-28T03:27:46;100936.38;;;3.56;100.00
10881;BME280;5493;48.884;8.338;2023-01-28T03:30:39;100944.72;;;3.87;100.00
10881;BME280;5493;48.884;8.338;2023-01-28T03:33:28;100940.38;;;3.86;100.00
10881;BME280;5493;48.884;8.338;2023-01-28T03:36:13;100941.22;;;3.86;100.00
10881;BME280;5493;48.884;8.338;2023-01-28T03:38:57;100950.38;;;3.92;100.00
10881;BME280;5493;48.884;8.338;2023-01-28T03:41:25;100950.09;;;4.03;100.00
10881;BME280;5493;48.884;8.338;2023-01-28T03:43:51;100955.84;;;4.24;100.00
10881;BME280;5493;48.884;8.338;2023-01-28T03:46:19;100959.88;;;4.28;100.00
10881;BME280;5493;48.884;8.338;2023-01-28T03:48:47;100959.84;;;4.20;100.00
10881;BME280;5493;48.884;8.338;2023-01-28T03:51:13;100957.69;;;4.24;100.00
10881;BME280;5493;48.884;8.338;2023-01-28T03:53:42;100959.88;;;4.28;100.00
10881;BME280;5493;48.884;8.338;2023-01-28T03:56:08;100960.16;;;4.17;100.00
10881;BME280;5493;48.884;8.338;2023-01-28T03:58:42;100966.44;;;4.00;100.00
10881;BME280;5493;48.884;8.338;2023-01-28T04:01:17;100963.19;;;4.22;100.00
10881;BME280;5493;48.884;8.338;2023-01-28T04:03:43;100955.59;;;3.93;100.00
10881;BME280;5493;48.884;8.338;2023-01-28T04:06:11;100961.78;;;4.02;100.00
10881;BME280;5493;48.884;8.338;2023-01-28T04:08:38;100962.28;;;4.06;100.00
10881;BME280;5493;48.884;8.338;2023-01-28T04:11:04;100961.47;;;4.05;100.00
10881;BME280;5493;48.884;8.338;2023-01-28T04:13:40;100966.16;;;4.11;100.00
10881;BME280;5493;48.884;8.338;2023-01-28T04:16:07;100961.63;;;4.04;100.00
10881;BME280;5493;48.884;8.338;2023-01-28T04:18:34;100966.81;;;4.13;100.00
10881;BME280;5493;48.884;8.338;2023-01-28T04:21:00;100959.84;;;4.20;100.00
10881;BME280;5493;48.884;8.338;2023-01-28T04:23:28;100965.00;;;4.14;100.00
10881;BME280;5493;48.884;8.338;2023-01-28T04:25:55;100979.22;;;4.22;100.00
10881;BME280;5493;48.884;8.338;2023-01-28T04:28:22;100980.16;;;4.13;100.00
10881;BME280;5493;48.884;8.338;2023-01-28T04:30:48;100980.84;;;4.15;100.00
10881;BME280;5493;48.884;8.338;2023-01-28T04:33:15;100977.50;;;4.13;100.00
10881;BME280;5493;48.884;8.338;2023-01-28T04:35:41;100976.50;;;4.14;100.00
10881;BME280;5493;48.884;8.338;2023-01-28T04:38:08;100980.28;;;4.04;100.00
10881;BME280;5493;48.884;8.338;2023-01-28T04:40:36;100981.28;;;4.03;100.00
10881;BME280;5493;48.884;8.338;2023-01-28T04:43:03;100979.94;;;3.98;100.00
10881;BME280;5493;48.884;8.338;2023-01-28T04:45:29;100989.69;;;4.16;100.00
10881;BME280;5493;48.884;8.338;2023-01-28T04:47:56;100985.16;;;4.08;100.00
10881;BME280;5493;48.884;8.338;2023-01-28T04:50:22;100983.84;;;4.12;100.00
10881;BME280;5493;48.884;8.338;2023-01-28T04:52:49;100981.59;;;4.00;100.00
10881;BME280;5493;48.884;8.338;2023-01-28T04:55:15;100991.91;;;3.94;100.00
10881;BME280;5493;48.884;8.338;2023-01-28T04:57:45;100991.09;;;3.94;100.00
10881;BME280;5493;48.884;8.338;2023-01-28T05:00:12;100983.63;;;3.97;100.00
10881;BME280;5493;48.884;8.338;2023-01-28T05:02:39;100985.25;;;3.98;100.00
10881;BME280;5493;48.884;8.338;2023-01-28T05:05:06;100993.59;;;3.95;100.00
10881;BME280;5493;48.884;8.338;2023-01-28T05:07:34;100997.00;;;3.80;100.00
10881;BME280;5493;48.884;8.338;2023-01-28T05:10:00;101000.63;;;3.71;100.00
10881;BME280;5493;48.884;8.338;2023-01-28T05:12:27;101000.38;;;3.56;100.00
10881;BME280;5493;48.884;8.338;2023-01-28T05:14:55;101003.44;;;3.69;100.00
10881;BME280;5493;48.884;8.338;2023-01-28T05:17:22;101008.81;;;3.52;100.00
10881;BME280;5493;48.884;8.338;2023-01-28T05:19:48;101009.22;;;3.57;100.00
10881;BME280;5493;48.884;8.338;2023-01-28T05:22:15;101016.44;;;3.64;100.00
10881;BME280;5493;48.884;8.338;2023-01-28T05:24:41;101013.19;;;3.53;100.00
10881;BME280;5493;48.884;8.338;2023-01-28T05:27:08;101019.75;;;3.40;100.00
10881;BME280;5493;48.884;8.338;2023-01-28T05:29:35;101014.91;;;3.36;100.00
10881;BME280;5493;48.884;8.338;2023-01-28T05:32:03;101020.00;;;3.55;100.00
10881;BME280;5493;48.884;8.338;2023-01-28T05:34:30;101022.66;;;3.47;100.00
10881;BME280;5493;48.884;8.338;2023-01-28T05:36:56;101017.84;;;3.33;100.00
10881;BME280;5493;48.884;8.338;2023-01-28T05:39:23;101023.81;;;3.27;100.00
10881;BME280;5493;48.884;8.338;2023-01-28T05:41:50;101025.19;;;3.31;100.00
10881;BME280;5493;48.884;8.338;2023-01-28T05:44:16;101025.78;;;3.42;100.00
10881;BME280;5493;48.884;8.338;2023-01-28T05:46:43;101024.50;;;3.29;100.00
10881;BME280;5493;48.884;8.338;2023-01-28T05:49:12;101029.34;;;3.33;100.00
10881;BME280;5493;48.884;8.338;2023-01-28T05:51:38;101033.13;;;3.48;100.00
10881;BME280;5493;48.884;8.338;2023-01-28T05:54:05;101036.50;;;3.51;100.00
10881;BME280;5493;48.884;8.338;2023-01-28T05:56:32;101032.00;;;3.33;100.00
10881;BME280;5493;48.884;8.338;2023-01-28T05:59:01;101041.97;;;3.49;100.00
10881;BME280;5493;48.884;8.338;2023-01-28T06:01:27;101041.66;;;3.52;100.00
10881;BME280;5493;48.884;8.338;2023-01-28T06:03:54;101050.97;;;3.48;100.00
10881;BME280;5493;48.884;8.338;2023-01-28T06:06:22;101053.22;;;3.61;100.00
10881;BME280;5493;48.884;8.338;2023-01-28T06:08:48;101053.16;;;3.53;100.00
10881;BME280;5493;48.884;8.338;2023-01-28T06:11:15;101056.94;;;3.68;100.00
10881;BME280;5493;48.884;8.338;2023-01-28T06:13:42;101057.75;;;3.42;100.00
10881;BME280;5493;48.884;8.338;2023-01-28T06:16:08;101062.31;;;3.50;100.00
10881;BME280;5493;48.884;8.338;2023-01-28T06:18:35;101065.50;;;3.54;100.00
10881;BME280;5493;48.884;8.338;2023-01-28T06:21:01;101063.50;;;3.56;100.00
10881;BME280;5493;48.884;8.338;2023-01-28T06:23:29;101068.72;;;3.57;100.00
10881;BME280;5493;48.884;8.338;2023-01-28T06:25:56;101079.50;;;3.56;100.00
10881;BME280;5493;48.884;8.338;2023-01-28T06:28:23;101083.84;;;3.57;100.00
10881;BME280;5493;48.884;8.338;2023-01-28T06:30:51;101088.25;;;3.66;100.00
10881;BME280;5493;48.884;8.338;2023-01-28T06:33:18;101086.63;;;3.47;100.00
10881;BME280;5493;48.884;8.338;2023-01-28T06:35:45;101081.66;;;3.34;100.00
10881;BME280;5493;48.884;8.338;2023-01-28T06:38:12;101087.22;;;3.23;100.00
10881;BME280;5493;48.884;8.338;2023-01-28T06:40:39;101087.84;;;3.35;100.00
10881;BME280;5493;48.884;8.338;2023-01-28T06:43:06;101096.47;;;3.29;100.00
10881;BME280;5493;48.884;8.338;2023-01-28T06:45:33;101101.56;;;3.40;100.00
10881;BME280;5493;48.884;8.338;2023-01-28T06:47:59;101089.53;;;3.36;100.00
10881;BME280;5493;48.884;8.338;2023-01-28T06:50:26;101109.63;;;3.30;100.00
10881;BME280;5493;48.884;8.338;2023-01-28T06:52:52;101106.56;;;3.43;100.00
10881;BME280;5493;48.884;8.338;2023-01-28T06:55:19;101101.38;;;3.59;100.00
10881;BME280;5493;48.884;8.338;2023-01-28T06:57:47;101100.41;;;3.25;100.00
10881;BME280;5493;48.884;8.338;2023-01-28T07:00:14;101106.09;;;3.30;100.00
10881;BME280;5493;48.884;8.338;2023-01-28T07:02:40;101113.44;;;3.28;100.00
10881;BME280;5493;48.884;8.338;2023-01-28T07:05:07;101106.34;;;3.54;100.00
10881;BME280;5493;48.884;8.338;2023-01-28T07:07:34;101113.66;;;3.34;100.00
10881;BME280;5493;48.884;8.338;2023-01-28T07:10:00;101115.47;;;3.34;100.00
10881;BME280;5493;48.884;8.338;2023-01-28T07:12:27;101113.78;;;3.33;100.00
10881;BME280;5493;48.884;8.338;2023-01-28T07:14:55;101110.00;;;3.35;100.00
10881;BME280;5493;48.884;8.338;2023-01-28T07:17:21;101116.41;;;3.25;100.00
10881;BME280;5493;48.884;8.338;2023-01-28T07:19:48;101116.75;;;3.30;100.00
10881;BME280;5493;48.884;8.338;2023-01-28T07:22:14;101126.00;;;3.53;100.00
10881;BME280;5493;48.884;8.338;2023-01-28T07:24:41;101133.16;;;3.53;100.00
10881;BME280;5493;48.884;8.338;2023-01-28T07:27:07;101129.09;;;3.48;100.00
10881;BME280;5493;48.884;8.338;2023-01-28T07:29:34;101131.16;;;3.55;100.00
10881;BME280;5493;48.884;8.338;2023-01-28T07:32:02;101126.97;;;3.52;100.00
10881;BME280;5493;48.884;8.338;2023-01-28T07:34:31;101129.19;;;3.57;100.00
10881;BME280;5493;48.884;8.338;2023-01-28T07:36:58;101130.34;;;3.54;100.00
10881;BME280;5493;48.884;8.338;2023-01-28T07:39:25;101128.72;;;3.61;100.00
10881;BME280;5493;48.884;8.338;2023-01-28T07:41:51;101133.03;;;3.62;100.00
10881;BME280;5493;48.884;8.338;2023-01-28T07:44:18;101135.03;;;3.60;100.00
10881;BME280;5493;48.884;8.338;2023-01-28T07:46:44;101140.91;;;3.64;100.00
10881;BME280;5493;48.884;8.338;2023-01-28T07:49:12;101143.25;;;3.67;100.00
10881;BME280;5493;48.884;8.338;2023-01-28T07:51:39;101136.94;;;3.68;100.00
10881;BME280;5493;48.884;8.338;2023-01-28T07:54:05;101144.31;;;3.74;100.00
10881;BME280;5493;48.884;8.338;2023-01-28T07:56:32;101140.44;;;3.68;100.00
10881;BME280;5493;48.884;8.338;2023-01-28T07:58:58;101145.72;;;3.60;100.00
10881;BME280;5493;48.884;8.338;2023-01-28T08:01:26;101152.72;;;3.61;100.00
10881;BME280;5493;48.884;8.338;2023-01-28T08:03:52;101150.19;;;3.60;100.00
10881;BME280;5493;48.884;8.338;2023-01-28T08:06:20;101148.50;;;3.59;100.00
10881;BME280;5493;48.884;8.338;2023-01-28T08:08:47;101155.66;;;3.58;100.00
10881;BME280;5493;48.884;8.338;2023-01-28T08:11:14;101148.16;;;3.54;100.00
10881;BME280;5493;48.884;8.338;2023-01-28T08:13:40;101148.25;;;3.62;100.00
10881;BME280;5493;48.884;8.338;2023-01-28T08:16:07;101146.97;;;3.74;100.00
10881;BME280;5493;48.884;8.338;2023-01-28T08:18:33;101165.28;;;3.86;100.00
10881;BME280;5493;48.884;8.338;2023-01-28T08:21:00;101165.28;;;3.86;100.00
10881;BME280;5493;48.884;8.338;2023-01-28T08:23:27;101171.91;;;3.82;100.00
10881;BME280;5493;48.884;8.338;2023-01-28T08:25:57;101178.97;;;3.91;100.00
10881;BME280;5493;48.884;8.338;2023-01-28T08:28:24;101170.19;;;3.99;100.00
10881;BME280;5493;48.884;8.338;2023-01-28T08:30:50;101171.59;;;3.85;100.00
10881;BME280;5493;48.884;8.338;2023-01-28T08:33:18;101176.78;;;3.87;100.00
10881;BME280;5493;48.884;8.338;2023-01-28T08:35:45;101171.31;;;3.71;100.00
10881;BME280;5493;48.884;8.338;2023-01-28T08:38:12;101169.44;;;3.89;100.00
10881;BME280;5493;48.884;8.338;2023-01-28T08:40:40;101178.53;;;3.78;100.00
10881;BME280;5493;48.884;8.338;2023-01-28T08:43:07;101177.25;;;3.82;100.00
10881;BME280;5493;48.884;8.338;2023-01-28T08:45:34;101168.78;;;3.87;100.00
10881;BME280;5493;48.884;8.338;2023-01-28T08:48:02;101170.47;;;3.70;100.00
10881;BME280;5493;48.884;8.338;2023-01-28T08:50:31;101184.59;;;4.06;100.00
10881;BME280;5493;48.884;8.338;2023-01-28T08:52:59;101174.78;;;3.89;100.00
10881;BME280;5493;48.884;8.338;2023-01-28T08:55:26;101181.25;;;4.04;100.00
10881;BME280;5493;48.884;8.338;2023-01-28T08:57:54;101180.63;;;4.10;100.00
10881;BME280;5493;48.884;8.338;2023-01-28T09:00:22;101184.22;;;4.01;100.00
10881;BME280;5493;48.884;8.338;2023-01-28T09:02:50;101179.53;;;4.21;100.00
10881;BME280;5493;48.884;8.338;2023-01-28T09:05:17;101185.63;;;4.13;100.00
10881;BME280;5493;48.884;8.338;2023-01-28T09:07:44;101181.03;;;4.23;100.00
10881;BME280;5493;48.884;8.338;2023-01-28T09:10:11;101179.72;;;4.27;100.00
10881;BME280;5493;48.884;8.338;2023-01-28T09:12:38;101180.69;;;4.18;100.00
10881;BME280;5493;48.884;8.338;2023-01-28T09:15:07;101184.53;;;4.50;100.00
10881;BME280;5493;48.884;8.338;2023-01-28T09:17:34;101189.16;;;4.39;100.00
10881;BME280;5493;48.884;8.338;2023-01-28T09:20:00;101183.88;;;4.22;100.00
10881;BME280;5493;48.884;8.338;2023-01-28T09:25:04;101184.97;;;4.11;100.00
10881;BME280;5493;48.884;8.338;2023-01-28T09:27:31;101186.03;;;4.18;100.00
10881;BME280;5493;48.884;8.338;2023-01-28T09:29:57;101195.28;;;4.32;100.00
10881;BME280;5493;48.884;8.338;2023-01-28T09:32:25;101197.38;;;4.46;100.00
10881;BME280;5493;48.884;8.338;2023-01-28T09:34:52;101201.00;;;4.63;100.00
10881;BME280;5493;48.884;8.338;2023-01-28T09:37:18;101201.59;;;4.57;100.00
10881;BME280;5493;48.884;8.338;2023-01-28T09:39:45;101204.53;;;4.45;100.00
10881;BME280;5493;48.884;8.338;2023-01-28T09:42:23;101199.06;;;4.47;100.00
10881;BME280;5493;48.884;8.338;2023-01-28T09:45:00;101201.13;;;4.35;100.00
10881;BME280;5493;48.884;8.338;2023-01-28T09:47:33;101202.03;;;4.44;100.00
10881;BME280;5493;48.884;8.338;2023-01-28T09:50:04;101208.63;;;4.58;100.00
10881;BME280;5493;48.884;8.338;2023-01-28T09:52:34;101201.84;;;4.71;100.00
10881;BME280;5493;48.884;8.338;2023-01-28T09:55:04;101206.59;;;4.85;100.00
10881;BME280;5493;48.884;8.338;2023-01-28T09:57:37;101213.56;;;4.78;100.00
10881;BME280;5493;48.884;8.338;2023-01-28T10:00:12;101214.69;;;4.68;100.00
10881;BME280;5493;48.884;8.338;2023-01-28T10:02:50;101208.56;;;4.75;100.00
10881;BME280;5493;48.884;8.338;2023-01-28T10:05:23;101206.34;;;4.71;100.00
10881;BME280;5493;48.884;8.338;2023-01-28T10:08:00;101211.34;;;4.66;100.00
10881;BME280;5493;48.884;8.338;2023-01-28T10:10:34;101217.03;;;4.63;100.00
10881;BME280;5493;48.884;8.338;2023-01-28T10:13:16;101210.09;;;4.86;100.00
10881;BME280;5493;48.884;8.338;2023-01-28T10:15:50;101207.16;;;4.63;100.00
10881;BME280;5493;48.884;8.338;2023-01-28T10:18:29;101201.03;;;4.45;100.00
10881;BME280;5493;48.884;8.338;2023-01-28T10:21:03;101193.00;;;4.71;100.00
10881;BME280;5493;48.884;8.338;2023-01-28T10:23:38;101201.50;;;4.66;100.00
10881;BME280;5493;48.884;8.338;2023-01-28T10:26:13;101195.72;;;4.79;100.00
10881;BME280;5493;48.884;8.338;2023-01-28T10:28:42;101182.88;;;4.82;100.00
10881;BME280;5493;48.884;8.338;2023-01-28T10:31:11;101190.84;;;4.74;100.00
10881;BME280;5493;48.884;8.338;2023-01-28T10:33:39;101196.13;;;5.00;100.00
10881;BME280;5493;48.884;8.338;2023-01-28T10:36:07;101195.84;;;5.11;100.00
10881;BME280;5493;48.884;8.338;2023-01-28T10:38:34;101186.66;;;5.06;100.00
10881;BME280;5493;48.884;8.338;2023-01-28T10:41:02;101191.25;;;4.87;100.00
10881;BME280;5493;48.884;8.338;2023-01-28T10:43:31;101201.66;;;4.65;100.00
10881;BME280;5493;48.884;8.338;2023-01-28T10:46:03;101194.03;;;4.70;100.00
10881;BME280;5493;48.884;8.338;2023-01-28T10:48:32;101192.34;;;4.69;100.00
10881;BME280;5493;48.884;8.338;2023-01-28T10:51:02;101190.84;;;4.74;100.00
10881;BME280;5493;48.884;8.338;2023-01-28T10:53:34;101202.50;;;4.65;100.00
10881;BME280;5493;48.884;8.338;2023-01-28T10:56:03;101201.50;;;4.66;100.00
10881;BME280;5493;48.884;8.338;2023-01-28T10:58:33;101204.72;;;4.78;100.00
10881;BME280;5493;48.884;8.338;2023-01-28T11:01:04;101204.53;;;4.71;100.00
10881;BME280;5493;48.884;8.338;2023-01-28T11:03:31;101203.75;;;4.53;100.00
10881;BME280;5493;48.884;8.338;2023-01-28T11:06:01;101211.44;;;4.56;100.00
10881;BME280;5493;48.884;8.338;2023-01-28T11:08:29;101207.06;;;4.47;100.00
10881;BME280;5493;48.884;8.338;2023-01-28T11:10:56;101202.81;;;4.62;100.00
10881;BME280;5493;48.884;8.338;2023-01-28T11:13:24;101203.09;;;4.51;100.00
10881;BME280;5493;48.884;8.338;2023-01-28T11:15:53;101208.31;;;4.61;100.00
10881;BME280;5493;48.884;8.338;2023-01-28T11:18:24;101209.63;;;4.57;100.00
10881;BME280;5493;48.884;8.338;2023-01-28T11:20:53;101203.22;;;4.75;100.00
10881;BME280;5493;48.884;8.338;2023-01-28T11:23:24;101203.59;;;4.55;100.00
10881;BME280;5493;48.884;8.338;2023-01-28T11:26:05;101204.78;;;4.52;100.00
10881;BME280;5493;48.884;8.338;2023-01-28T11:28:34;101203.09;;;4.51;100.00
10881;BME280;5493;48.884;8.338;2023-01-28T11:31:02;101206.06;;;4.74;100.00
10881;BME280;5493;48.884;8.338;2023-01-28T11:33:32;101210.84;;;4.62;100.00
10881;BME280;5493;48.884;8.338;2023-01-28T11:36:06;101222.38;;;4.45;100.00
10881;BME280;5493;48.884;8.338;2023-01-28T11:38:35;101214.22;;;4.21;100.00
10881;BME280;5493;48.884;8.338;2023-01-28T11:41:01;101223.72;;;4.23;100.00
10881;BME280;5493;48.884;8.338;2023-01-28T11:43:30;101216.88;;;4.21;100.00
10881;BME280;5493;48.884;8.338;2023-01-28T11:46:07;101222.00;;;4.14;100.00
10881;BME280;5493;48.884;8.338;2023-01-28T11:48:44;101224.28;;;4.09;100.00
10881;BME280;5493;48.884;8.338;2023-01-28T11:51:23;101227.50;;;4.13;100.00
10881;BME280;5493;48.884;8.338;2023-01-28T11:54:05;101222.63;;;4.08;100.00
10881;BME280;5493;48.884;8.338;2023-01-28T11:56:52;101216.22;;;4.19;100.00
10881;BME280;5493;48.884;8.338;2023-01-28T11:59:48;101225.66;;;4.13;100.00
10881;BME280;5493;48.884;8.338;2023-01-28T12:02:26;101221.00;;;4.33;100.00
10881;BME280;5493;48.884;8.338;2023-01-28T12:05:10;101224.31;;;4.35;100.00
10881;BME280;5493;48.884;8.338;2023-01-28T12:07:45;101224.78;;;4.05;100.00
10881;BME280;5493;48.884;8.338;2023-01-28T12:10:22;101221.13;;;4.31;100.00
10881;BME280;5493;48.884;8.338;2023-01-28T12:13:04;101212.59;;;4.28;100.00
10881;BME280;5493;48.884;8.338;2023-01-28T12:16:07;101220.81;;;4.34;100.00
10881;BME280;5493;48.884;8.338;2023-01-28T12:21:47;101220.81;;;4.34;100.00
10881;BME280;5493;48.884;8.338;2023-01-28T12:24:30;101207.25;;;4.28;100.00
10881;BME280;5493;48.884;8.338;2023-01-28T12:27:07;101211.44;;;4.05;100.00
10881;BME280;5493;48.884;8.338;2023-01-28T12:29:45;101203.19;;;4.16;100.00
10881;BME280;5493;48.884;8.338;2023-01-28T12:32:28;101200.03;;;4.20;100.00
10881;BME280;5493;48.884;8.338;2023-01-28T12:35:20;101193.72;;;4.21;100.00
10881;BME280;5493;48.884;8.338;2023-01-28T12:37:58;101196.13;;;4.32;100.00
10881;BME280;5493;48.884;8.338;2023-01-28T12:40:44;101186.28;;;4.33;100.00
10881;BME280;5493;48.884;8.338;2023-01-28T12:43:19;101192.34;;;4.43;100.00
10881;BME280;5493;48.884;8.338;2023-01-28T12:45:51;101195.06;;;4.25;100.00
10881;BME280;5493;48.884;8.338;2023-01-28T12:48:22;101194.38;;;4.49;100.00
10881;BME280;5493;48.884;8.338;2023-01-28T12:50:56;101186.88;;;4.44;100.00
10881;BME280;5493;48.884;8.338;2023-01-28T12:53:28;101188.16;;;4.40;100.00
10881;BME280;5493;48.884;8.338;2023-01-28T12:56:02;101190.03;;;4.74;100.00
10881;BME280;5493;48.884;8.338;2023-01-28T12:58:38;101185.81;;;4.71;100.00
10881;BME280;5493;48.884;8.338;2023-01-28T13:01:08;101182.22;;;4.80;100.00
10881;BME280;5493;48.884;8.338;2023-01-28T13:03:40;101181.38;;;4.80;100.00
10881;BME280;5493;48.884;8.338;2023-01-28T13:06:12;101178.00;;;4.70;100.00
10881;BME280;5493;48.884;8.338;2023-01-28T13:08:40;101178.31;;;4.75;100.00
10881;BME280;5493;48.884;8.338;2023-01-28T13:11:11;101177.16;;;4.69;100.00
10881;BME280;5493;48.884;8.338;2023-01-28T13:13:42;101184.03;;;4.46;100.00
10881;BME280;5493;48.884;8.338;2023-01-28T13:16:11;101178.84;;;4.78;100.00
10881;BME280;5493;48.884;8.338;2023-01-28T13:18:43;101179.44;;;4.64;100.00
10881;BME280;5493;48.884;8.338;2023-01-28T13:21:16;101176.94;;;4.63;100.00